Terminal Aerodrome Forecast
Issued by NWS Burlington, VT

Home | Current Version | Previous Version | Text Only | Print | Product List | Glossary On
Versions: 1 2 3 4 5 6 7 8 9 10 11 12 13 14 15 16 17 18 19 20
425
FTUS41 KBTV 272340
TAFBTV
TAF
KBTV 272340Z 2800/2824 25007KT P6SM BKN060
     FM280600 VRB03KT P6SM SCT100
     FM281400 17008KT P6SM SCT150
     FM281600 17010G18KT P6SM BKN060
     FM282100 17010KT P6SM VCSH OVC050=

USA.gov is the U.S. government's official web portal to all federal, state and local government web resources and services.